createdAt,value
2024-01-03T00:00:20.178Z,78.69
2024-01-03T00:02:48.853Z,80.35
2024-01-03T00:05:20.602Z,78.52
2024-01-03T00:07:49.586Z,78.22
2024-01-03T00:10:35.530Z,80.04
2024-01-03T00:13:06.619Z,79.84
2024-01-03T00:16:20.634Z,78.11
2024-01-03T00:18:51.537Z,79.55
2024-01-03T00:21:24.302Z,80.44
2024-01-03T00:23:54.562Z,81.42
2024-01-03T00:26:25.204Z,81.62
2024-01-03T00:28:53.719Z,79.93
2024-01-03T00:31:37.249Z,79.22
2024-01-03T00:34:07.561Z,79.61
2024-01-03T00:36:35.969Z,80.31
2024-01-03T00:39:04.359Z,78.86
2024-01-03T00:41:33.821Z,81.08
2024-01-03T00:44:02.191Z,81.57
2024-01-03T00:46:30.560Z,80.79
2024-01-03T00:48:58.669Z,80.13
2024-01-03T00:51:27.043Z,79.81
2024-01-03T00:53:55.541Z,80.98
2024-01-03T00:56:24.045Z,78.98
2024-01-03T00:58:53.791Z,79.91
2024-01-03T01:01:22.360Z,77.77
2024-01-03T01:03:51.294Z,79.95
2024-01-03T01:06:19.555Z,78.14
2024-01-03T01:08:47.693Z,79.42
2024-01-03T01:11:15.731Z,78.22
2024-01-03T01:13:43.687Z,79.53
2024-01-03T01:16:13.153Z,77.51
2024-01-03T01:18:41.548Z,79.27
2024-01-03T01:21:09.609Z,77.06
2024-01-03T01:23:39.728Z,78.15
2024-01-03T01:26:08.038Z,77.59
2024-01-03T01:28:36.379Z,78.64
2024-01-03T01:31:04.867Z,79.69
2024-01-03T01:33:34.393Z,78.84
2024-01-03T01:36:02.906Z,78.88
2024-01-03T01:38:31.060Z,77.86
2024-01-03T01:40:59.158Z,78.95
2024-01-03T01:43:27.388Z,80.24
2024-01-03T01:45:55.788Z,78.06
2024-01-03T01:48:24.232Z,77.24
2024-01-03T01:50:54.696Z,77.10
2024-01-03T01:53:22.933Z,77.65
2024-01-03T01:55:51.644Z,78.94
2024-01-03T01:58:23.400Z,78.36
2024-01-03T02:00:51.713Z,76.92
2024-01-03T02:03:20.048Z,79.18
2024-01-03T02:05:48.654Z,76.89
2024-01-03T02:08:18.609Z,78.21
2024-01-03T02:10:46.848Z,78.30
2024-01-03T02:13:14.843Z,78.33
2024-01-03T02:15:42.928Z,75.97
2024-01-03T02:18:12.344Z,77.77
2024-01-03T02:20:41.909Z,76.52
2024-01-03T02:23:11.437Z,76.27
2024-01-03T02:25:39.714Z,75.42
2024-01-03T02:28:11.196Z,78.40
2024-01-03T02:30:42.583Z,78.29
2024-01-03T02:33:11.047Z,78.91
2024-01-03T02:35:39.317Z,75.46
2024-01-03T02:38:07.693Z,77.89
2024-01-03T02:40:37.447Z,77.56
2024-01-03T02:43:05.756Z,77.62
2024-01-03T02:45:34.061Z,76.92
2024-01-03T02:48:04.085Z,78.37
2024-01-03T02:50:32.285Z,79.80
2024-01-03T02:53:02.310Z,76.45
2024-01-03T02:55:30.686Z,77.57
2024-01-03T02:58:00.278Z,78.01
2024-01-03T03:00:28.556Z,79.01
2024-01-03T03:02:56.878Z,79.64
2024-01-03T03:05:25.210Z,78.80
2024-01-03T03:07:53.314Z,78.88
2024-01-03T03:10:21.587Z,78.08
2024-01-03T03:12:49.906Z,79.30
2024-01-03T03:15:19.509Z,79.13
2024-01-03T03:17:47.687Z,79.73
2024-01-03T03:20:16.032Z,80.31
2024-01-03T03:22:44.007Z,79.02
2024-01-03T03:25:12.048Z,80.30
2024-01-03T03:27:40.267Z,78.35
2024-01-03T03:30:09.593Z,79.51
2024-01-03T03:32:39.441Z,78.74
2024-01-03T03:35:08.242Z,79.71
2024-01-03T03:37:36.428Z,78.24
2024-01-03T03:40:04.483Z,77.77
2024-01-03T03:42:32.594Z,81.69
2024-01-03T03:45:00.912Z,81.24
2024-01-03T03:47:29.407Z,79.87
2024-01-03T03:49:59.228Z,80.82
2024-01-03T03:52:27.449Z,79.98
2024-01-03T03:54:55.716Z,80.00
2024-01-03T03:57:24.024Z,78.82
2024-01-03T03:59:52.463Z,80.58
2024-01-03T04:02:20.729Z,79.93
2024-01-03T04:04:49.117Z,81.61
2024-01-03T04:07:18.830Z,79.37
2024-01-03T04:09:46.810Z,80.38
2024-01-03T04:12:15.141Z,81.63
2024-01-03T04:14:43.467Z,80.48
2024-01-03T04:17:11.728Z,81.52
2024-01-03T04:19:40.546Z,80.91
2024-01-03T04:22:08.820Z,81.12
2024-01-03T04:24:38.090Z,83.05
2024-01-03T04:27:06.675Z,82.22
2024-01-03T04:29:34.770Z,82.22
2024-01-03T04:32:03.071Z,83.36
2024-01-03T04:34:31.404Z,81.88
2024-01-03T04:36:59.795Z,82.60
2024-01-03T04:39:28.034Z,81.83
2024-01-03T04:41:57.726Z,82.43
2024-01-03T04:44:26.075Z,81.15
2024-01-03T04:46:54.298Z,81.83
2024-01-03T04:49:22.821Z,82.23
2024-01-03T04:51:51.178Z,81.42
2024-01-03T04:54:19.451Z,82.32
2024-01-03T04:56:48.646Z,81.38
2024-01-03T04:59:18.375Z,82.31
2024-01-03T05:01:46.683Z,83.82
2024-01-03T05:04:15.184Z,82.17
2024-01-03T05:06:43.814Z,81.83
2024-01-03T05:09:12.125Z,82.06
2024-01-03T05:11:40.472Z,81.82
2024-01-03T05:14:08.691Z,81.00
2024-01-03T05:16:38.190Z,82.16
2024-01-03T05:19:06.606Z,82.40
2024-01-03T05:21:35.017Z,83.12
2024-01-03T05:24:03.188Z,82.36
2024-01-03T05:26:31.568Z,82.27
2024-01-03T05:28:59.645Z,82.60
2024-01-03T05:31:27.957Z,84.00
2024-01-03T05:33:57.725Z,83.04
2024-01-03T05:36:25.880Z,82.41
2024-01-03T05:38:53.947Z,81.89
2024-01-03T05:41:22.373Z,82.28
2024-01-03T05:43:50.659Z,83.23
2024-01-03T05:46:18.649Z,82.64
2024-01-03T05:48:46.834Z,83.31
2024-01-03T05:51:17.429Z,82.73
2024-01-03T05:53:49.018Z,82.46
2024-01-03T05:56:17.717Z,82.16
2024-01-03T05:58:46.171Z,82.64
2024-01-03T06:01:14.607Z,82.31
2024-01-03T06:03:43.076Z,82.84
2024-01-03T06:06:11.717Z,82.11
2024-01-03T06:08:41.409Z,83.33
2024-01-03T06:11:10.403Z,82.20
2024-01-03T06:13:38.410Z,82.83
2024-01-03T06:16:07.476Z,82.77
2024-01-03T06:18:35.979Z,82.88
2024-01-03T06:21:04.541Z,81.36
2024-01-03T06:23:32.961Z,82.03
2024-01-03T06:26:02.662Z,82.81
2024-01-03T06:28:30.715Z,82.81
2024-01-03T06:30:58.828Z,82.28
2024-01-03T06:33:27.082Z,82.06
2024-01-03T06:35:56.091Z,81.99
2024-01-03T06:38:24.202Z,84.26
2024-01-03T06:40:52.381Z,82.99
2024-01-03T06:43:22.126Z,82.63
2024-01-03T06:45:50.501Z,81.40
2024-01-03T06:48:19.327Z,81.79
2024-01-03T06:50:47.954Z,81.76
2024-01-03T06:53:16.561Z,81.53
2024-01-03T06:55:44.859Z,83.61
2024-01-03T06:58:13.037Z,83.11
2024-01-03T07:00:42.702Z,81.98
2024-01-03T07:03:11.087Z,82.00
2024-01-03T07:05:41.168Z,81.91
2024-01-03T07:08:09.894Z,82.25
2024-01-03T07:10:38.558Z,82.05
2024-01-03T07:13:06.882Z,82.55
2024-01-03T07:15:35.152Z,82.19
2024-01-03T07:18:05.037Z,83.16
2024-01-03T07:20:33.388Z,82.24
2024-01-03T07:23:01.837Z,82.07
2024-01-03T07:25:30.188Z,82.37
2024-01-03T07:27:59.860Z,81.05
2024-01-03T07:30:29.374Z,81.62
2024-01-03T07:32:59.387Z,80.31
2024-01-03T07:35:28.983Z,81.18
2024-01-03T07:37:57.130Z,81.79
2024-01-03T07:40:25.569Z,81.31
2024-01-03T07:42:53.816Z,81.82
2024-01-03T07:45:22.697Z,81.41
2024-01-03T07:47:51.232Z,81.06
2024-01-03T07:50:20.301Z,81.32
2024-01-03T07:52:49.786Z,80.75
2024-01-03T07:55:18.096Z,81.56
2024-01-03T07:57:46.354Z,83.15
2024-01-03T08:00:15.583Z,81.70
2024-01-03T08:02:43.986Z,81.76
2024-01-03T08:05:12.410Z,81.94
2024-01-03T08:07:40.424Z,82.30
2024-01-03T08:10:11.877Z,81.65
2024-01-03T08:12:40.292Z,82.07
2024-01-03T08:15:09.330Z,81.89
2024-01-03T08:17:37.839Z,81.29
2024-01-03T08:20:07.154Z,81.20
2024-01-03T08:22:35.885Z,81.46
2024-01-03T08:25:04.081Z,80.97
2024-01-03T08:27:33.629Z,81.32
2024-01-03T08:30:01.984Z,81.04
2024-01-03T08:32:30.249Z,81.48
2024-01-03T08:34:58.293Z,80.10
2024-01-03T08:37:26.567Z,80.15
2024-01-03T08:39:54.843Z,80.89
2024-01-03T08:42:25.057Z,80.08
2024-01-03T08:44:54.817Z,80.81
2024-01-03T08:47:23.472Z,80.65
2024-01-03T08:49:52.003Z,79.65
2024-01-03T08:52:20.635Z,80.35
2024-01-03T08:54:49.139Z,79.55
2024-01-03T08:57:17.441Z,79.12
2024-01-03T08:59:45.758Z,79.76
2024-01-03T09:02:15.494Z,80.15
2024-01-03T09:04:43.813Z,78.95
2024-01-03T09:07:12.192Z,79.53
2024-01-03T09:09:41.955Z,80.07
2024-01-03T09:12:10.037Z,79.36
2024-01-03T09:14:38.080Z,79.24
2024-01-03T09:17:06.399Z,78.94
2024-01-03T09:19:36.151Z,79.19
2024-01-03T09:22:04.370Z,79.19
2024-01-03T09:24:32.378Z,79.02
2024-01-03T09:27:02.077Z,78.91
2024-01-03T09:29:30.843Z,78.83
2024-01-03T09:32:00.078Z,78.60
2024-01-03T09:34:28.518Z,78.67
2024-01-03T09:36:58.003Z,78.76
2024-01-03T09:39:26.039Z,79.01
2024-01-03T09:41:54.637Z,79.05
2024-01-03T09:44:23.406Z,78.69
2024-01-03T09:46:51.745Z,78.61
2024-01-03T09:49:20.824Z,78.90
2024-01-03T09:51:49.828Z,78.09
2024-01-03T09:54:20.443Z,77.71
2024-01-03T09:56:49.709Z,78.17
2024-01-03T09:59:19.143Z,78.03
2024-01-03T10:01:59.655Z,78.11
2024-01-03T10:04:28.331Z,77.81
2024-01-03T10:06:59.022Z,77.49
2024-01-03T10:09:42.380Z,78.17
2024-01-03T10:12:19.410Z,77.65
2024-01-03T10:14:48.050Z,77.72
2024-01-03T10:17:16.114Z,77.20
2024-01-03T10:19:44.750Z,77.47
2024-01-03T10:22:13.123Z,77.25
2024-01-03T10:24:47.141Z,77.16
2024-01-03T10:27:15.762Z,76.42
2024-01-03T10:29:43.876Z,77.10
2024-01-03T10:32:16.802Z,76.42
2024-01-03T10:34:45.199Z,76.39
2024-01-03T10:37:14.087Z,77.04
2024-01-03T10:39:45.061Z,76.42
2024-01-03T10:42:14.866Z,76.48
2024-01-03T10:44:45.520Z,76.81
2024-01-03T10:47:13.900Z,78.14
2024-01-03T10:49:45.952Z,77.46
2024-01-03T10:52:15.201Z,77.64
2024-01-03T10:54:48.649Z,77.41
2024-01-03T10:57:24.942Z,78.06
2024-01-03T11:00:03.581Z,78.34
2024-01-03T11:02:38.198Z,78.57
2024-01-03T11:05:16.598Z,78.77
2024-01-03T11:07:51.558Z,79.30
2024-01-03T11:10:50.300Z,78.54
2024-01-03T11:13:30.656Z,78.28
2024-01-03T11:15:59.630Z,78.53
2024-01-03T11:18:54.203Z,78.58
2024-01-03T11:21:45.595Z,78.37
2024-01-03T11:24:47.694Z,78.61
2024-01-03T11:27:24.269Z,77.72
2024-01-03T11:29:56.738Z,78.68
2024-01-03T11:32:39.791Z,78.31
2024-01-03T11:35:12.635Z,77.90
2024-01-03T11:37:41.060Z,77.95
2024-01-03T11:40:20.432Z,77.67
2024-01-03T11:42:49.347Z,77.73
2024-01-03T11:45:21.259Z,77.66
2024-01-03T11:47:50.970Z,78.21
2024-01-03T11:50:19.419Z,77.94
2024-01-03T11:52:50.289Z,78.84
2024-01-03T11:55:20.963Z,77.93
2024-01-03T11:57:50.826Z,77.15
2024-01-03T12:00:22.899Z,77.89
2024-01-03T12:02:52.784Z,76.53
2024-01-03T12:05:22.729Z,76.36
2024-01-03T12:07:53.071Z,76.96
2024-01-03T12:10:22.494Z,77.05
2024-01-03T12:12:53.105Z,76.67
2024-01-03T12:18:06.209Z,76.60
2024-01-03T12:20:35.297Z,77.11
2024-01-03T12:23:11.836Z,77.14
2024-01-03T12:25:41.064Z,77.31
2024-01-03T12:28:09.919Z,76.45
2024-01-03T12:30:39.730Z,76.03
2024-01-03T12:33:10.746Z,75.95
2024-01-03T12:35:39.308Z,76.52
2024-01-03T12:38:07.726Z,75.76
2024-01-03T12:40:35.892Z,76.69
2024-01-03T12:43:04.596Z,76.62
2024-01-03T12:45:32.892Z,76.70
2024-01-03T12:48:02.564Z,76.37
2024-01-03T12:50:31.046Z,77.05
2024-01-03T12:52:59.111Z,76.45
2024-01-03T12:55:27.202Z,77.17
2024-01-03T12:57:55.184Z,77.22
2024-01-03T13:00:23.516Z,76.86
2024-01-03T13:02:51.814Z,77.39
2024-01-03T13:05:22.169Z,77.96
2024-01-03T13:07:50.526Z,77.62
2024-01-03T13:10:18.751Z,77.55
2024-01-03T13:12:46.801Z,77.36
2024-01-03T13:15:15.356Z,77.80
2024-01-03T13:17:44.039Z,78.11
2024-01-03T13:20:14.569Z,78.72
2024-01-03T13:22:45.578Z,77.91
2024-01-03T13:25:13.711Z,78.29
2024-01-03T13:27:44.436Z,77.60
2024-01-03T13:30:14.186Z,77.50
2024-01-03T13:32:43.404Z,77.86
2024-01-03T13:35:11.594Z,78.69
2024-01-03T13:37:39.674Z,77.47
2024-01-03T13:40:10.288Z,78.00
2024-01-03T13:42:38.349Z,77.92
2024-01-03T13:45:07.841Z,78.97
2024-01-03T13:47:36.084Z,78.81
2024-01-03T13:50:04.587Z,78.29
2024-01-03T13:52:32.744Z,78.40
2024-01-03T13:55:02.274Z,78.69
2024-01-03T13:57:31.920Z,78.55
2024-01-03T14:00:01.575Z,79.40
2024-01-03T14:02:29.979Z,78.55
2024-01-03T14:04:58.082Z,79.11
2024-01-03T14:07:26.448Z,79.46
2024-01-03T14:09:54.931Z,79.10
2024-01-03T14:12:24.507Z,79.20
2024-01-03T14:14:54.273Z,79.19
2024-01-03T14:17:22.683Z,79.08
2024-01-03T14:19:50.830Z,79.61
2024-01-03T14:22:20.106Z,78.68
2024-01-03T14:24:48.393Z,80.16
2024-01-03T14:27:16.540Z,79.09
2024-01-03T14:29:46.035Z,79.46
2024-01-03T14:32:15.704Z,79.41
2024-01-03T14:34:44.198Z,79.45
2024-01-03T14:37:12.916Z,79.11
2024-01-03T14:39:41.730Z,78.93
2024-01-03T14:42:12.379Z,78.83
2024-01-03T14:44:41.215Z,78.30
2024-01-03T14:47:10.239Z,77.95
2024-01-03T14:49:39.988Z,78.30
2024-01-03T14:52:09.199Z,79.17
2024-01-03T14:54:38.849Z,78.69
2024-01-03T14:57:09.044Z,79.93
2024-01-03T14:59:39.778Z,79.40
2024-01-03T15:02:09.412Z,78.99
2024-01-03T15:04:38.957Z,79.61
2024-01-03T15:07:07.067Z,79.19
2024-01-03T15:09:35.272Z,79.37
2024-01-03T15:12:03.572Z,78.95
2024-01-03T15:14:34.366Z,79.56
2024-01-03T15:17:02.583Z,79.38
2024-01-03T15:19:30.970Z,78.44
2024-01-03T15:22:07.657Z,78.96
2024-01-03T15:24:36.849Z,79.56
2024-01-03T15:27:05.820Z,78.93
2024-01-03T15:29:35.392Z,79.00
2024-01-03T15:32:03.931Z,79.47
2024-01-03T15:34:32.333Z,79.03
2024-01-03T15:37:01.214Z,78.83
2024-01-03T15:39:30.873Z,78.47
2024-01-03T15:41:58.994Z,78.65
2024-01-03T15:44:27.405Z,79.11
2024-01-03T15:46:55.721Z,78.54
2024-01-03T15:49:26.227Z,78.45
2024-01-03T15:51:58.548Z,78.54
2024-01-03T15:54:36.893Z,78.69
2024-01-03T15:57:14.467Z,78.31
2024-01-03T15:59:42.740Z,78.70
2024-01-03T16:02:11.092Z,78.89
2024-01-03T16:04:39.495Z,78.40
2024-01-03T16:07:07.655Z,77.86
2024-01-03T16:09:36.748Z,77.92
2024-01-03T16:12:06.545Z,78.16
2024-01-03T16:14:37.890Z,78.26
2024-01-03T16:17:06.473Z,77.67
2024-01-03T16:19:35.277Z,78.11
2024-01-03T16:22:03.832Z,78.12
2024-01-03T16:24:32.054Z,77.45
2024-01-03T16:27:06.124Z,78.39
2024-01-03T16:29:36.773Z,78.29
2024-01-03T16:32:07.050Z,77.73
2024-01-03T16:34:35.761Z,76.94
2024-01-03T16:37:08.108Z,77.65
2024-01-03T16:39:37.261Z,78.15
2024-01-03T16:42:06.366Z,77.83
2024-01-03T16:44:35.955Z,77.51
2024-01-03T16:47:04.195Z,78.00
2024-01-03T16:49:32.577Z,77.14
2024-01-03T16:52:00.839Z,75.97
2024-01-03T16:54:29.374Z,77.63
2024-01-03T16:56:57.725Z,77.39
2024-01-03T16:59:26.021Z,77.52
2024-01-03T17:01:55.801Z,76.82
2024-01-03T17:04:24.256Z,78.44
2024-01-03T17:06:52.352Z,77.62
2024-01-03T17:09:20.870Z,77.59
2024-01-03T17:11:49.528Z,77.29
2024-01-03T17:14:17.835Z,77.82
2024-01-03T17:16:47.639Z,77.74
2024-01-03T17:19:18.266Z,78.05
2024-01-03T17:21:46.681Z,78.32
2024-01-03T17:24:14.759Z,77.31
2024-01-03T17:26:44.364Z,77.34
2024-01-03T17:29:14.313Z,77.77
2024-01-03T17:31:42.975Z,78.46
2024-01-03T17:34:11.553Z,78.58
2024-01-03T17:36:42.144Z,78.27
2024-01-03T17:39:11.423Z,78.94
2024-01-03T17:41:42.697Z,78.13
2024-01-03T17:44:10.779Z,77.96
2024-01-03T17:46:39.265Z,77.53
2024-01-03T17:49:07.791Z,78.76
2024-01-03T17:51:39.054Z,77.95
2024-01-03T17:54:08.620Z,78.33
2024-01-03T17:56:36.847Z,77.85
2024-01-03T17:59:10.264Z,78.37
2024-01-03T18:01:39.789Z,77.74
2024-01-03T18:04:10.298Z,77.50
2024-01-03T18:06:38.444Z,77.88
2024-01-03T18:09:10.896Z,78.70
2024-01-03T18:11:39.258Z,78.34
2024-01-03T18:14:07.572Z,78.87
2024-01-03T18:16:36.767Z,77.71
2024-01-03T18:19:05.159Z,78.02
2024-01-03T18:21:33.402Z,78.57
2024-01-03T18:24:08.265Z,78.86
2024-01-03T18:26:38.325Z,78.62
2024-01-03T18:29:06.815Z,78.24
2024-01-03T18:31:35.041Z,78.51
2024-01-03T18:34:03.436Z,78.20
2024-01-03T18:36:31.647Z,77.92
2024-01-03T18:38:59.764Z,78.32
2024-01-03T18:41:27.886Z,78.62
2024-01-03T18:43:57.572Z,78.27
2024-01-03T18:46:25.696Z,77.90
2024-01-03T18:48:54.505Z,77.63
2024-01-03T18:51:23.871Z,78.24
2024-01-03T18:53:52.587Z,78.36
2024-01-03T18:56:20.806Z,79.45
2024-01-03T18:58:49.173Z,77.86
2024-01-03T19:01:19.600Z,78.64
2024-01-03T19:03:48.244Z,78.30
2024-01-03T19:06:16.754Z,78.72
2024-01-03T19:08:45.723Z,78.88
2024-01-03T19:11:14.109Z,77.93
2024-01-03T19:13:42.369Z,77.84
2024-01-03T19:16:10.974Z,78.67
2024-01-03T19:18:40.588Z,78.22
2024-01-03T19:21:08.912Z,77.56
2024-01-03T19:23:37.644Z,77.87
2024-01-03T19:26:07.691Z,78.65
2024-01-03T19:28:36.286Z,78.65
2024-01-03T19:31:05.249Z,78.63
2024-01-03T19:33:33.809Z,79.17
2024-01-03T19:36:04.971Z,79.14
2024-01-03T19:38:33.894Z,78.28
2024-01-03T19:41:02.613Z,78.59
2024-01-03T19:43:31.168Z,78.37
2024-01-03T19:46:00.352Z,78.28
2024-01-03T19:48:29.511Z,78.35
2024-01-03T19:50:58.401Z,78.45
2024-01-03T19:53:28.014Z,76.99
2024-01-03T19:55:57.349Z,75.63
2024-01-03T19:58:26.792Z,75.36
2024-01-03T20:00:54.875Z,76.47
2024-01-03T20:03:23.089Z,75.96
2024-01-03T20:05:51.263Z,75.31
2024-01-03T20:08:19.829Z,75.37
2024-01-03T20:10:49.324Z,75.15
2024-01-03T20:13:18.530Z,74.96
2024-01-03T20:15:46.941Z,74.90
2024-01-03T20:18:15.444Z,76.08
2024-01-03T20:20:45.157Z,75.58
2024-01-03T20:23:14.415Z,76.36
2024-01-03T20:25:42.509Z,77.61
2024-01-03T20:28:12.645Z,76.39
2024-01-03T20:30:41.013Z,77.12
2024-01-03T20:33:09.565Z,77.46
2024-01-03T20:35:37.667Z,77.08
2024-01-03T20:38:06.127Z,77.52
2024-01-03T20:40:34.127Z,77.75
2024-01-03T20:43:03.656Z,77.22
2024-01-03T20:45:34.915Z,77.14
2024-01-03T20:48:03.307Z,76.74
2024-01-03T20:50:34.359Z,76.38
2024-01-03T20:53:02.595Z,76.64
2024-01-03T20:55:30.697Z,77.03
2024-01-03T20:57:59.239Z,76.86
2024-01-03T21:00:27.379Z,76.37
2024-01-03T21:02:56.913Z,76.56
2024-01-03T21:05:25.359Z,76.76
2024-01-03T21:07:53.737Z,76.65
2024-01-03T21:10:22.086Z,77.28
2024-01-03T21:12:50.182Z,76.46
2024-01-03T21:15:18.344Z,75.66
2024-01-03T21:17:46.614Z,76.49
2024-01-03T21:20:16.470Z,76.43
2024-01-03T21:22:44.549Z,75.45
2024-01-03T21:25:12.687Z,76.53
2024-01-03T21:27:46.997Z,75.57
2024-01-03T21:30:20.555Z,76.87
2024-01-03T21:32:49.857Z,77.18
2024-01-03T21:35:19.673Z,76.60
2024-01-03T21:37:47.944Z,78.02
2024-01-03T21:40:16.585Z,76.93
2024-01-03T21:42:44.572Z,76.03
2024-01-03T21:45:12.695Z,78.03
2024-01-03T21:47:42.297Z,76.59
2024-01-03T21:50:11.823Z,75.86
2024-01-03T21:52:47.261Z,76.55
2024-01-03T21:55:16.012Z,76.04
2024-01-03T21:57:44.016Z,76.49
2024-01-03T22:00:14.358Z,76.03
2024-01-03T22:02:42.777Z,75.88
2024-01-03T22:05:14.148Z,76.16
2024-01-03T22:07:44.257Z,75.66
2024-01-03T22:10:14.003Z,75.37
2024-01-03T22:12:46.494Z,75.41
2024-01-03T22:15:15.379Z,75.09
2024-01-03T22:17:43.931Z,76.29
2024-01-03T22:20:12.502Z,75.08
2024-01-03T22:22:41.071Z,76.08
2024-01-03T22:25:11.093Z,76.36
2024-01-03T22:27:39.952Z,76.34
2024-01-03T22:30:09.351Z,74.74
2024-01-03T22:32:37.840Z,75.87
2024-01-03T22:35:06.478Z,74.83
2024-01-03T22:37:35.382Z,75.85
2024-01-03T22:40:05.311Z,76.46
2024-01-03T22:42:36.848Z,76.35
2024-01-03T22:45:07.088Z,75.45
2024-01-03T22:47:35.640Z,75.07
2024-01-03T22:50:04.108Z,75.82
2024-01-03T22:52:32.664Z,75.46
2024-01-03T22:55:02.816Z,76.16
2024-01-03T22:57:31.262Z,75.76
2024-01-03T23:00:01.001Z,75.83
2024-01-03T23:02:29.373Z,75.75
2024-01-03T23:04:57.554Z,75.71
2024-01-03T23:07:25.617Z,75.58
2024-01-03T23:09:53.903Z,75.15
2024-01-03T23:12:22.542Z,74.53
2024-01-03T23:14:50.853Z,75.11
2024-01-03T23:17:21.413Z,75.26
2024-01-03T23:19:49.958Z,75.88
2024-01-03T23:22:18.252Z,75.58
2024-01-03T23:24:46.570Z,75.92
2024-01-03T23:27:15.012Z,76.17
2024-01-03T23:29:43.050Z,75.45
2024-01-03T23:32:11.310Z,74.86
2024-01-03T23:34:40.955Z,75.87
2024-01-03T23:37:09.314Z,74.27
2024-01-03T23:39:37.768Z,74.29
2024-01-03T23:42:06.173Z,76.92
2024-01-03T23:44:34.494Z,75.64
2024-01-03T23:47:02.825Z,75.60
2024-01-03T23:49:31.118Z,74.91
2024-01-03T23:52:00.517Z,75.56
2024-01-03T23:54:28.814Z,76.51
2024-01-03T23:56:57.363Z,75.42
2024-01-03T23:59:25.366Z,76.27
